Time;durP1;ratioP1;P1;durP2;ratioP2;P2;SDS_P1;SDS_P2;PMS_P1;PMS_P2;Temp;Humidity;BMP_temperature;BMP_pressure;BME280_temperature;BME280_humidity;BME280_pressure;Samples;Min_cycle;Max_cycle;Signal;HPM_P1;HPM_P2
2022/01/17 00:00:21;;;;;;;25.80;16.20;;;-3276.40;84.60;;;;;;6274109;28;20246;-59
2022/01/17 00:03:24;;;;;;;26.13;16.53;;;-3276.30;84.60;;;;;;6307136;28;20192;-60
2022/01/17 00:06:25;;;;;;;28.60;18.37;;;-3276.20;85.00;;;;;;6290161;28;20216;-59
2022/01/17 00:09:27;;;;;;;28.57;17.40;;;-3276.30;84.90;;;;;;6326480;28;20210;-59
2022/01/17 00:12:30;;;;;;;27.73;16.87;;;-3276.20;84.90;;;;;;6331806;28;20220;-59
2022/01/17 00:15:46;;;;;;;24.40;16.37;;;-3276.20;84.70;;;;;;6305718;28;20192;-59
2022/01/17 00:21:48;;;;;;;28.13;16.70;;;-3276.10;85.00;;;;;;6306200;28;20267;-61
2022/01/17 00:24:54;;;;;;;24.20;15.63;;;-3276.00;84.70;;;;;;6289754;28;20193;-60
2022/01/17 00:27:54;;;;;;;27.87;18.00;;;-3276.00;84.80;;;;;;6295502;28;20195;-60
2022/01/17 00:30:55;;;;;;;25.83;16.60;;;-3276.00;84.80;;;;;;6331659;28;20203;-60
2022/01/17 00:33:56;;;;;;;22.70;15.93;;;-3276.00;84.70;;;;;;6324603;28;20215;-60
2022/01/17 00:36:57;;;;;;;24.67;16.30;;;-3276.20;84.00;;;;;;6284953;28;20214;-60
2022/01/17 00:39:59;;;;;;;23.40;15.40;;;-3276.00;84.50;;;;;;6303105;28;20189;-61
2022/01/17 00:43:00;;;;;;;22.67;15.67;;;-3276.00;84.80;;;;;;6311616;28;20306;-59
2022/01/17 00:46:01;;;;;;;24.37;15.60;;;-3275.90;84.90;;;;;;6334635;28;20197;-59
2022/01/17 00:49:02;;;;;;;22.13;15.63;;;-3275.90;85.40;;;;;;6321003;28;20195;-60
2022/01/17 00:52:04;;;;;;;23.00;14.00;;;-3276.00;85.30;;;;;;6310403;28;20223;-60
2022/01/17 00:55:06;;;;;;;20.20;15.00;;;-3276.00;85.10;;;;;;6325118;28;20245;-59
2022/01/17 00:58:07;;;;;;;21.53;14.33;;;-3276.00;85.00;;;;;;6350465;28;20192;-60
2022/01/17 01:01:08;;;;;;;23.43;16.40;;;-3276.00;85.30;;;;;;6311324;28;20188;-59
2022/01/17 01:04:09;;;;;;;25.13;15.97;;;-3276.00;85.30;;;;;;6316843;28;20218;-59
2022/01/17 01:07:09;;;;;;;27.27;17.97;;;-3276.00;85.50;;;;;;6334001;28;20226;-59
2022/01/17 01:10:11;;;;;;;23.50;16.13;;;-3276.00;85.40;;;;;;6318916;28;20191;-59
2022/01/17 01:13:12;;;;;;;29.40;16.37;;;-3275.90;85.70;;;;;;6307447;28;20221;-60
2022/01/17 01:19:27;;;;;;;24.20;16.30;;;-3275.90;85.90;;;;;;6335980;28;20228;-59
2022/01/17 01:29:07;;;;;;;26.50;16.10;;;-3276.00;85.40;;;;;;6270197;28;20225;-61
2022/01/17 01:32:09;;;;;;;27.37;17.50;;;-3276.00;85.50;;;;;;6254599;28;20240;-60
2022/01/17 01:35:13;;;;;;;32.73;18.63;;;-3276.10;86.10;;;;;;6246008;28;20214;-60
2022/01/17 01:38:14;;;;;;;23.90;14.83;;;-3276.10;85.40;;;;;;6267764;28;20243;-61
2022/01/17 01:41:15;;;;;;;24.33;16.43;;;-3276.10;85.70;;;;;;6257054;28;20197;-61
2022/01/17 01:44:20;;;;;;;22.87;14.93;;;-3276.00;85.70;;;;;;6291253;28;20260;-61
2022/01/17 01:47:23;;;;;;;23.87;16.27;;;-3276.00;85.70;;;;;;6284469;28;20281;-62
2022/01/17 01:50:24;;;;;;;25.43;16.93;;;-3276.20;85.80;;;;;;6273163;28;20197;-61
2022/01/17 01:53:26;;;;;;;24.83;17.73;;;-3276.10;85.20;;;;;;6286412;28;20213;-61
2022/01/17 01:56:27;;;;;;;23.17;16.43;;;-3276.00;85.50;;;;;;6268222;28;20239;-61
2022/01/17 01:59:28;;;;;;;22.60;15.03;;;-3276.00;85.10;;;;;;6279651;28;20219;-60
2022/01/17 02:02:29;;;;;;;26.63;17.90;;;-3276.00;85.00;;;;;;6276321;28;20197;-60
2022/01/17 02:05:30;;;;;;;29.27;18.47;;;-3275.90;85.00;;;;;;6267925;28;20197;-60
2022/01/17 02:08:31;;;;;;;31.53;21.00;;;-3275.80;85.60;;;;;;6269323;28;20201;-60
2022/01/17 02:11:34;;;;;;;33.00;19.43;;;-3275.80;85.60;;;;;;6259296;28;20217;-59
2022/01/17 02:14:34;;;;;;;24.23;17.07;;;-3275.70;85.80;;;;;;6276099;28;20188;-59
2022/01/17 02:17:44;;;;;;;24.27;17.27;;;-3275.80;85.80;;;;;;6259732;28;20208;-58
2022/01/17 02:21:08;;;;;;;27.77;18.13;;;-3275.70;85.80;;;;;;6278881;28;20236;-59
2022/01/17 02:24:05;;;;;;;28.40;18.23;;;-3275.70;85.70;;;;;;6316610;28;20201;-59
2022/01/17 02:27:06;;;;;;;27.37;18.47;;;-3275.70;85.90;;;;;;6322212;28;20205;-59
2022/01/17 02:30:08;;;;;;;31.27;19.30;;;-3275.70;86.10;;;;;;6330248;28;20192;-59
2022/01/17 02:33:08;;;;;;;27.40;18.80;;;-3275.70;86.10;;;;;;6330161;28;20220;-59
2022/01/17 02:36:10;;;;;;;29.10;16.60;;;-3275.70;86.30;;;;;;6302430;28;20199;-58
2022/01/17 02:39:13;;;;;;;32.87;17.20;;;-3275.70;86.20;;;;;;6309073;28;20275;-58
2022/01/17 02:42:18;;;;;;;31.10;18.17;;;-3275.70;86.20;;;;;;6359579;27;20188;-58
2022/01/17 02:45:31;;;;;;;25.60;17.27;;;-3275.70;86.20;;;;;;6351708;27;20187;-58
2022/01/17 02:48:34;;;;;;;26.10;17.93;;;-3275.70;86.50;;;;;;6315832;28;20195;-59
2022/01/17 02:51:35;;;;;;;28.37;19.40;;;-3275.80;85.90;;;;;;6332837;28;20236;-58
2022/01/17 02:54:36;;;;;;;27.40;18.50;;;-3275.70;86.10;;;;;;6331476;28;20190;-58
2022/01/17 02:57:37;;;;;;;25.33;16.37;;;-3275.70;86.30;;;;;;6342097;28;20188;-58
2022/01/17 03:00:39;;;;;;;28.70;17.30;;;-3275.60;86.10;;;;;;6291155;28;20201;-58
2022/01/17 03:03:42;;;;;;;24.37;17.13;;;-3275.70;85.90;;;;;;6290592;28;20287;-57
2022/01/17 03:06:42;;;;;;;22.97;15.87;;;-3275.70;86.10;;;;;;6324896;28;20209;-57
2022/01/17 03:09:57;;;;;;;24.37;17.03;;;-3275.70;85.90;;;;;;6324517;28;20192;-58
2022/01/17 03:13:03;;;;;;;24.47;15.43;;;-3275.70;86.00;;;;;;6290815;28;20224;-58
2022/01/17 03:16:09;;;;;;;24.50;16.30;;;-3275.90;85.30;;;;;;6307639;28;20196;-58
2022/01/17 03:19:10;;;;;;;20.03;15.17;;;-3275.70;85.10;;;;;;6314761;28;20278;-58
2022/01/17 03:22:10;;;;;;;26.40;17.03;;;-3275.70;85.20;;;;;;6332608;28;20240;-58
2022/01/17 03:25:11;;;;;;;25.83;16.60;;;-3275.70;85.20;;;;;;6331582;28;20224;-58
2022/01/17 03:28:12;;;;;;;28.03;16.80;;;-3275.80;85.50;;;;;;6332384;28;20217;-58
2022/01/17 03:31:13;;;;;;;20.63;16.70;;;-3275.70;85.00;;;;;;6318417;28;20205;-58
2022/01/17 03:34:14;;;;;;;28.17;18.17;;;-3275.70;85.40;;;;;;6317615;28;20191;-59
2022/01/17 03:37:15;;;;;;;27.83;17.40;;;-3275.60;85.50;;;;;;6282638;28;20218;-60
2022/01/17 03:40:15;;;;;;;25.37;17.97;;;-3275.60;86.00;;;;;;6274367;28;20200;-60
2022/01/17 03:43:17;;;;;;;27.57;17.37;;;-3275.50;86.00;;;;;;6307768;28;20203;-60
2022/01/17 03:46:18;;;;;;;24.63;16.93;;;-3275.50;86.20;;;;;;6313386;28;20200;-60
2022/01/17 03:49:19;;;;;;;23.83;17.83;;;-3275.60;86.10;;;;;;6274562;28;20307;-61
2022/01/17 03:52:20;;;;;;;24.83;16.70;;;-3275.60;86.00;;;;;;6332372;28;20220;-61
2022/01/17 03:55:22;;;;;;;22.83;17.00;;;-3275.50;86.10;;;;;;6315191;28;20185;-60
2022/01/17 03:58:27;;;;;;;28.50;17.80;;;-3275.50;86.20;;;;;;6331448;28;20342;-61
2022/01/17 04:01:28;;;;;;;28.73;16.93;;;-3275.50;86.10;;;;;;6332224;28;20217;-61
2022/01/17 04:04:29;;;;;;;23.70;17.70;;;-3275.50;86.40;;;;;;6331442;28;20203;-61
2022/01/17 04:07:30;;;;;;;26.60;17.80;;;-3275.50;86.60;;;;;;6290618;28;20699;-60
2022/01/17 04:10:30;;;;;;;25.93;16.40;;;-3275.50;86.60;;;;;;6327067;28;20249;-60
2022/01/17 04:13:33;;;;;;;27.70;18.77;;;-3275.60;86.50;;;;;;6326716;28;20248;-60
2022/01/17 04:16:33;;;;;;;23.47;16.00;;;-3275.60;86.30;;;;;;6331302;28;20604;-60
2022/01/17 04:19:34;;;;;;;27.73;19.00;;;-3275.40;86.20;;;;;;6331104;28;20191;-60
2022/01/17 04:22:39;;;;;;;24.23;17.67;;;-3275.50;86.40;;;;;;6331969;28;20238;-60
2022/01/17 04:25:42;;;;;;;27.93;18.10;;;-3275.40;86.40;;;;;;6314501;28;20188;-60
2022/01/17 04:28:43;;;;;;;25.10;16.50;;;-3275.40;85.80;;;;;;6347973;28;20192;-60
2022/01/17 04:31:44;;;;;;;25.20;17.00;;;-3275.30;86.30;;;;;;6318680;28;20270;-60
2022/01/17 04:34:44;;;;;;;24.33;17.40;;;-3275.30;86.40;;;;;;6333081;28;20180;-60
2022/01/17 04:37:45;;;;;;;23.67;16.50;;;-3275.30;85.90;;;;;;6296838;28;20270;-60
2022/01/17 04:40:49;;;;;;;26.43;17.77;;;-3275.40;86.00;;;;;;6340234;28;20256;-61
2022/01/17 04:46:50;;;;;;;24.93;16.60;;;-3275.40;86.40;;;;;;6326314;28;20192;-63
2022/01/17 04:49:51;;;;;;;25.77;17.73;;;-3275.50;85.80;;;;;;6331858;28;20293;-63
2022/01/17 04:52:57;;;;;;;24.00;16.33;;;-3275.40;85.90;;;;;;6322793;28;20222;-63
2022/01/17 04:55:58;;;;;;;26.53;17.97;;;-3275.30;85.90;;;;;;6332229;28;20187;-63
2022/01/17 04:58:59;;;;;;;26.23;17.73;;;-3275.20;86.10;;;;;;6314849;28;20296;-62
2022/01/17 05:02:00;;;;;;;26.47;17.93;;;-3275.20;86.20;;;;;;6312002;28;20242;-62
2022/01/17 05:05:02;;;;;;;28.80;18.60;;;-3275.20;86.40;;;;;;6339902;28;20189;-62
2022/01/17 05:08:04;;;;;;;24.97;16.87;;;-3275.20;86.40;;;;;;6340721;28;20189;-63
2022/01/17 05:11:04;;;;;;;26.63;17.10;;;-3275.20;86.20;;;;;;6311481;28;20283;-62
2022/01/17 05:14:05;;;;;;;20.83;15.77;;;-3275.20;86.20;;;;;;6298030;28;20269;-62
2022/01/17 05:17:23;;;;;;;25.00;17.70;;;-3275.10;86.50;;;;;;6291500;28;20198;-62
2022/01/17 05:20:24;;;;;;;25.33;16.17;;;-3275.10;86.50;;;;;;6325652;28;20190;-62
2022/01/17 05:23:25;;;;;;;26.87;17.80;;;-3275.20;86.60;;;;;;6347662;28;20283;-63
2022/01/17 05:26:26;;;;;;;28.30;17.53;;;-3275.10;86.30;;;;;;6313201;28;20193;-63
2022/01/17 05:29:27;;;;;;;23.43;15.83;;;-3275.00;86.60;;;;;;6311929;28;20197;-63
2022/01/17 05:32:27;;;;;;;29.30;17.80;;;-3275.00;86.90;;;;;;6325143;28;20221;-62
2022/01/17 05:35:28;;;;;;;29.00;16.80;;;-3275.30;86.80;;;;;;6309351;28;20198;-62
2022/01/17 05:38:29;;;;;;;24.07;17.23;;;-3275.30;86.20;;;;;;6319927;28;20200;-62
2022/01/17 05:41:30;;;;;;;25.07;16.80;;;-3275.30;86.30;;;;;;6300736;28;20188;-62
2022/01/17 05:44:32;;;;;;;27.43;17.37;;;-3275.30;86.10;;;;;;6278645;28;20189;-62
2022/01/17 05:47:33;;;;;;;28.13;16.93;;;-3275.40;85.60;;;;;;6321577;28;20194;-64
2022/01/17 05:50:34;;;;;;;26.00;17.60;;;-3275.30;85.80;;;;;;6341449;28;20189;-64
2022/01/17 05:53:35;;;;;;;22.17;15.90;;;-3275.30;86.30;;;;;;6308632;28;20234;-63
2022/01/17 05:56:36;;;;;;;23.70;15.80;;;-3275.30;86.30;;;;;;6310067;28;20194;-63
2022/01/17 05:59:37;;;;;;;22.43;16.27;;;-3275.40;86.00;;;;;;6317140;28;20204;-63
2022/01/17 06:02:37;;;;;;;29.00;18.13;;;-3275.40;85.90;;;;;;6311968;28;20205;-63
2022/01/17 06:05:38;;;;;;;25.73;17.33;;;-3275.30;85.70;;;;;;6285330;28;20206;-63
2022/01/17 06:08:39;;;;;;;24.47;16.47;;;-3275.60;85.60;;;;;;6308962;28;20229;-63
2022/01/17 06:11:40;;;;;;;24.60;15.43;;;-3275.60;85.40;;;;;;6315001;28;20219;-62
2022/01/17 06:14:41;;;;;;;27.20;17.13;;;-3275.70;85.10;;;;;;6344324;27;20260;-63
2022/01/17 06:17:42;;;;;;;22.33;15.10;;;-3275.70;85.40;;;;;;6325075;28;20192;-63
2022/01/17 06:20:43;;;;;;;24.50;17.00;;;-3275.70;86.00;;;;;;6317400;28;20238;-63
2022/01/17 06:23:44;;;;;;;26.80;18.70;;;-3275.80;85.90;;;;;;6319002;28;20196;-63
2022/01/17 06:26:45;;;;;;;34.33;20.43;;;-3275.80;86.20;;;;;;6304960;28;20191;-63
2022/01/17 06:29:45;;;;;;;23.97;17.93;;;-3275.90;85.70;;;;;;6305489;28;20198;-63
2022/01/17 06:32:46;;;;;;;24.83;17.03;;;-3275.80;86.10;;;;;;6324264;28;20268;-63
2022/01/17 06:35:47;;;;;;;31.67;18.87;;;-3275.80;85.70;;;;;;6325054;28;20183;-63
2022/01/17 06:38:49;;;;;;;22.70;16.87;;;-3275.90;85.80;;;;;;6316351;28;20196;-63
2022/01/17 06:41:50;;;;;;;23.63;17.13;;;-3275.90;85.80;;;;;;6328439;28;20219;-63
2022/01/17 06:44:52;;;;;;;29.23;18.53;;;-3276.00;85.90;;;;;;6340252;28;20196;-63
2022/01/17 06:47:53;;;;;;;23.70;17.73;;;-3276.10;86.10;;;;;;6329938;28;20203;-63
2022/01/17 06:50:54;;;;;;;28.40;18.00;;;-3276.20;85.20;;;;;;6330904;28;20195;-63
2022/01/17 06:53:55;;;;;;;21.43;16.90;;;-3276.10;85.60;;;;;;6316426;27;20211;-63
2022/01/17 06:56:56;;;;;;;24.47;17.27;;;-3276.00;85.70;;;;;;6329302;28;20202;-63
2022/01/17 06:59:57;;;;;;;25.77;17.80;;;-3276.00;86.00;;;;;;6305584;28;20194;-63
2022/01/17 07:02:58;;;;;;;25.60;17.37;;;-3276.10;85.50;;;;;;6326568;27;20251;-63
2022/01/17 07:05:59;;;;;;;25.80;16.77;;;-3276.20;85.20;;;;;;6278180;28;20188;-61
2022/01/17 07:09:01;;;;;;;24.33;17.37;;;-3276.30;85.10;;;;;;6295995;28;20328;-64
2022/01/17 07:12:03;;;;;;;26.83;18.60;;;-3276.20;85.30;;;;;;6314518;28;20208;-63
2022/01/17 07:15:06;;;;;;;24.20;16.57;;;-3276.40;85.20;;;;;;6315247;28;20189;-63
2022/01/17 07:18:07;;;;;;;25.00;17.37;;;-3276.50;84.80;;;;;;6332327;28;20203;-63
2022/01/17 07:21:08;;;;;;;23.23;15.30;;;-3276.50;84.80;;;;;;6304682;28;20236;-64
2022/01/17 07:24:09;;;;;;;25.80;15.60;;;-3276.50;85.10;;;;;;6296729;28;20210;-64
2022/01/17 07:27:10;;;;;;;22.47;16.90;;;-3276.50;84.90;;;;;;6327194;28;20184;-64
2022/01/17 07:30:11;;;;;;;24.87;18.47;;;-3276.50;85.30;;;;;;6288266;28;20224;-64
2022/01/17 07:33:12;;;;;;;23.93;16.00;;;-3276.50;85.40;;;;;;6326585;28;20280;-64
2022/01/17 07:36:18;;;;;;;23.63;16.90;;;-3276.50;85.50;;;;;;6308413;28;20257;-64
2022/01/17 07:39:18;;;;;;;21.07;14.90;;;-3276.60;85.60;;;;;;6279171;28;20202;-64
2022/01/17 07:42:19;;;;;;;23.53;16.73;;;-3276.60;85.60;;;;;;6285286;28;20200;-64
2022/01/17 07:45:21;;;;;;;31.13;19.37;;;-3276.60;85.70;;;;;;6287095;28;20209;-64
2022/01/17 07:51:43;;;;;;;27.87;17.93;;;-3276.60;85.80;;;;;;6300310;28;20209;-64
2022/01/17 07:54:47;;;;;;;26.33;17.60;;;-3276.70;85.80;;;;;;6332637;28;20284;-64
2022/01/17 07:57:49;;;;;;;25.57;17.17;;;0.00;85.50;;;;;;6303447;28;20201;-64
2022/01/17 08:00:49;;;;;;;21.50;15.80;;;0.10;85.10;;;;;;6295501;28;20237;-63
2022/01/17 08:03:50;;;;;;;27.33;17.97;;;0.10;85.00;;;;;;6288022;28;20204;-64
2022/01/17 08:06:51;;;;;;;22.17;16.20;;;0.20;84.90;;;;;;6303339;28;20192;-64
2022/01/17 08:09:52;;;;;;;23.30;17.20;;;0.20;85.10;;;;;;6324498;28;20184;-64
2022/01/17 08:12:53;;;;;;;24.20;17.23;;;0.30;84.90;;;;;;6278545;28;20212;-64
2022/01/17 08:15:55;;;;;;;28.37;17.60;;;0.30;85.00;;;;;;6290089;28;20189;-64
2022/01/17 08:18:56;;;;;;;25.90;16.97;;;0.30;85.20;;;;;;6314499;28;20193;-64
2022/01/17 08:21:58;;;;;;;24.70;17.40;;;0.40;84.80;;;;;;6315309;28;20239;-64
2022/01/17 08:24:59;;;;;;;24.53;16.17;;;0.50;84.60;;;;;;6264621;28;20296;-64
2022/01/17 08:28:00;;;;;;;25.07;15.97;;;0.50;84.80;;;;;;6265526;28;20246;-64
2022/01/17 08:31:01;;;;;;;23.83;15.60;;;0.50;84.70;;;;;;6263069;28;20214;-64
2022/01/17 08:34:02;;;;;;;23.40;15.27;;;0.60;84.90;;;;;;6274054;28;20208;-63
2022/01/17 08:37:04;;;;;;;26.00;16.33;;;0.50;84.90;;;;;;6272951;28;20192;-63
2022/01/17 08:40:07;;;;;;;29.27;18.27;;;0.60;85.00;;;;;;6249587;28;20243;-64
2022/01/17 08:43:08;;;;;;;24.33;17.37;;;0.60;84.80;;;;;;6244016;28;20331;-64
2022/01/17 08:46:09;;;;;;;24.50;17.77;;;0.60;84.80;;;;;;6248507;28;20219;-63
2022/01/17 08:49:10;;;;;;;27.43;19.40;;;0.70;84.40;;;;;;6261260;28;20289;-63
2022/01/17 08:52:13;;;;;;;24.30;17.43;;;0.80;84.10;;;;;;6271583;28;20224;-64
2022/01/17 08:55:15;;;;;;;30.53;17.87;;;0.80;84.30;;;;;;6269555;28;20196;-64
2022/01/17 08:58:16;;;;;;;28.73;19.47;;;0.80;84.30;;;;;;6251687;28;20194;-64
2022/01/17 09:01:17;;;;;;;21.70;16.83;;;0.80;84.30;;;;;;6265357;28;20197;-64
2022/01/17 09:04:18;;;;;;;24.23;16.50;;;0.80;84.70;;;;;;6240111;28;20201;-64
2022/01/17 09:07:19;;;;;;;25.70;15.67;;;0.80;84.80;;;;;;6253309;28;20193;-64
2022/01/17 09:10:20;;;;;;;24.37;17.33;;;1.00;84.60;;;;;;6260283;28;20208;-64
2022/01/17 09:13:23;;;;;;;22.03;16.07;;;1.10;84.10;;;;;;6260641;28;20224;-63
2022/01/17 09:16:24;;;;;;;24.97;17.47;;;1.00;83.80;;;;;;6277546;28;20201;-64
2022/01/17 09:19:26;;;;;;;29.53;20.17;;;1.10;83.30;;;;;;6264116;28;20200;-64
2022/01/17 09:22:29;;;;;;;25.40;18.00;;;1.10;82.70;;;;;;6278932;28;20247;-64
2022/01/17 09:25:30;;;;;;;32.03;19.63;;;1.00;83.20;;;;;;6283888;28;20247;-64
2022/01/17 09:28:31;;;;;;;23.57;17.80;;;1.00;83.60;;;;;;6300211;28;20253;-64
2022/01/17 09:31:32;;;;;;;26.20;19.07;;;1.10;83.80;;;;;;6323789;28;20232;-62
2022/01/17 09:34:33;;;;;;;30.77;19.17;;;1.20;83.70;;;;;;6302070;28;20664;-62
2022/01/17 09:37:34;;;;;;;26.67;20.40;;;1.40;83.40;;;;;;6324079;28;20659;-62
2022/01/17 09:40:35;;;;;;;26.43;17.10;;;1.50;83.00;;;;;;6288043;28;20196;-62
2022/01/17 09:43:37;;;;;;;30.00;19.97;;;1.60;82.80;;;;;;6299991;28;20206;-62
2022/01/17 09:46:43;;;;;;;28.60;20.90;;;1.60;82.60;;;;;;6298683;28;20228;-62
2022/01/17 09:49:54;;;;;;;26.20;17.50;;;1.90;81.50;;;;;;6319191;28;20207;-61
2022/01/17 09:52:55;;;;;;;30.87;21.13;;;1.90;81.60;;;;;;6317108;28;20221;-62
2022/01/17 09:56:03;;;;;;;25.83;19.87;;;2.00;80.70;;;;;;6321848;28;20188;-62
2022/01/17 09:59:03;;;;;;;23.33;16.47;;;2.00;80.90;;;;;;6320000;28;20185;-62
2022/01/17 10:02:06;;;;;;;26.37;18.77;;;1.90;81.00;;;;;;6299637;28;20295;-62
2022/01/17 10:05:08;;;;;;;23.23;16.20;;;1.80;81.70;;;;;;6321463;28;20204;-62
2022/01/17 10:08:13;;;;;;;22.90;17.60;;;1.80;82.10;;;;;;6282581;28;20201;-63
2022/01/17 10:11:17;;;;;;;26.77;19.20;;;1.80;81.90;;;;;;6301861;28;20189;-63
2022/01/17 10:14:24;;;;;;;27.10;18.50;;;1.80;81.50;;;;;;6287685;28;20221;-64
2022/01/17 10:17:46;;;;;;;27.67;19.60;;;1.60;82.30;;;;;;6287015;28;20282;-64
2022/01/17 10:20:51;;;;;;;29.87;19.27;;;1.70;82.30;;;;;;6316039;28;20714;-64
2022/01/17 10:27:27;;;;;;;27.77;18.73;;;1.70;82.50;;;;;;6326152;28;20213;-63
2022/01/17 10:30:45;;;;;;;34.53;23.77;;;1.60;82.60;;;;;;6297348;28;20374;-62
2022/01/17 10:37:14;;;;;;;33.27;21.30;;;1.60;83.00;;;;;;6305478;28;20193;-63
2022/01/17 10:40:18;;;;;;;32.73;22.17;;;1.60;83.00;;;;;;6325498;28;20216;-63
2022/01/17 10:43:35;;;;;;;33.10;21.77;;;1.60;82.90;;;;;;6323798;28;20281;-63
2022/01/17 10:46:35;;;;;;;40.20;23.37;;;1.60;83.10;;;;;;6305442;28;20189;-63
2022/01/17 10:49:56;;;;;;;33.47;23.33;;;1.60;83.20;;;;;;6331103;28;20200;-62
2022/01/17 10:53:01;;;;;;;36.13;23.93;;;1.70;82.60;;;;;;6319495;28;20220;-64
2022/01/17 10:56:07;;;;;;;36.03;24.53;;;1.70;82.80;;;;;;6334267;28;20189;-63
2022/01/17 10:59:09;;;;;;;30.03;22.47;;;1.80;82.50;;;;;;6339214;28;20189;-63
2022/01/17 11:02:10;;;;;;;39.37;25.50;;;1.70;82.90;;;;;;6315394;28;20287;-63
2022/01/17 11:05:14;;;;;;;33.27;22.87;;;1.80;83.10;;;;;;6319813;28;20192;-62
2022/01/17 11:08:20;;;;;;;39.93;26.47;;;1.80;83.50;;;;;;6308507;28;20196;-62
2022/01/17 11:11:22;;;;;;;43.03;27.53;;;1.90;84.30;;;;;;6334092;28;20200;-62
2022/01/17 11:14:23;;;;;;;31.00;23.87;;;2.10;83.50;;;;;;6319813;28;20275;-62
2022/01/17 11:17:38;;;;;;;33.73;23.63;;;2.20;83.40;;;;;;6302525;28;20195;-62
2022/01/17 11:20:39;;;;;;;36.53;25.23;;;2.30;83.40;;;;;;6321750;28;20239;-63
2022/01/17 11:23:43;;;;;;;34.03;23.03;;;2.60;82.80;;;;;;6294498;28;20192;-62
2022/01/17 11:26:44;;;;;;;24.37;16.33;;;2.80;82.20;;;;;;6306260;28;20238;-62
2022/01/17 11:29:48;;;;;;;30.53;18.47;;;3.00;79.80;;;;;;6321245;28;20184;-62
2022/01/17 11:32:51;;;;;;;23.20;16.83;;;3.50;77.90;;;;;;6337116;28;20240;-62
2022/01/17 11:35:52;;;;;;;23.70;17.17;;;3.60;75.20;;;;;;6315618;28;20345;-62
2022/01/17 11:38:55;;;;;;;28.33;18.53;;;3.80;75.70;;;;;;6318540;28;20187;-62
2022/01/17 11:41:56;;;;;;;18.47;14.67;;;4.00;75.20;;;;;;6331093;28;20219;-63
2022/01/17 11:44:58;;;;;;;15.10;10.40;;;4.30;73.70;;;;;;6307483;28;20212;-63
2022/01/17 11:48:07;;;;;;;12.73;7.90;;;4.60;66.40;;;;;;6323882;28;20239;-63
2022/01/17 11:51:13;;;;;;;6.90;4.87;;;4.90;63.60;;;;;;6307522;28;20189;-63
2022/01/17 11:54:15;;;;;;;4.40;2.27;;;5.80;59.10;;;;;;6323476;28;20228;-63
2022/01/17 11:57:21;;;;;;;0.80;0.80;;;6.70;51.90;;;;;;6323307;28;20188;-63
2022/01/17 12:00:30;;;;;;;1.50;0.60;;;7.80;47.10;;;;;;6329146;28;20216;-63
2022/01/17 12:03:47;;;;;;;0.40;0.40;;;8.50;43.80;;;;;;6325133;28;20242;-63
2022/01/17 12:06:59;;;;;;;0.60;0.30;;;9.20;40.40;;;;;;6349424;28;20279;-62
2022/01/17 12:10:14;;;;;;;1.70;0.30;;;9.80;36.90;;;;;;6348613;28;20192;-64
2022/01/17 12:13:17;;;;;;;1.70;0.50;;;10.10;36.70;;;;;;6349728;28;20239;-63
2022/01/17 12:16:27;;;;;;;0.40;0.40;;;10.30;36.80;;;;;;6314401;28;20192;-62
2022/01/17 12:19:28;;;;;;;0.63;0.33;;;10.30;36.40;;;;;;6315175;28;20164;-62
2022/01/17 12:22:49;;;;;;;0.60;0.40;;;10.40;37.40;;;;;;6322947;28;20243;-63
2022/01/17 12:25:50;;;;;;;0.50;0.50;;;10.50;35.90;;;;;;6309452;28;20199;-62
2022/01/17 12:28:54;;;;;;;0.77;0.30;;;11.00;35.80;;;;;;6330322;28;20184;-63
2022/01/17 12:31:55;;;;;;;0.30;0.23;;;10.80;35.20;;;;;;6323929;28;20189;-62
2022/01/17 12:35:09;;;;;;;0.57;0.37;;;10.80;34.00;;;;;;6307273;28;20192;-63
2022/01/17 12:38:14;;;;;;;0.57;0.27;;;11.00;33.80;;;;;;6347940;27;20194;-63
2022/01/17 12:41:32;;;;;;;0.53;0.37;;;11.00;33.80;;;;;;6294182;28;20192;-63
2022/01/17 12:44:36;;;;;;;1.10;0.37;;;10.90;34.70;;;;;;6348718;27;20234;-64
2022/01/17 12:47:41;;;;;;;0.20;0.20;;;10.90;33.70;;;;;;6315475;28;20188;-63
2022/01/17 12:50:44;;;;;;;0.97;0.57;;;11.00;33.70;;;;;;6348619;28;20188;-63
2022/01/17 12:53:49;;;;;;;0.30;0.30;;;10.90;34.00;;;;;;6347214;28;20239;-65
2022/01/17 12:56:54;;;;;;;0.30;0.30;;;11.10;33.90;;;;;;6342021;28;20192;-65
2022/01/17 12:59:54;;;;;;;0.80;0.60;;;11.20;32.10;;;;;;6317072;28;20179;-64
2022/01/17 13:02:56;;;;;;;0.30;0.30;;;11.20;33.00;;;;;;6320851;28;20192;-64
2022/01/17 13:05:59;;;;;;;0.70;0.37;;;11.20;33.80;;;;;;6344656;28;20192;-64
2022/01/17 13:09:00;;;;;;;1.00;0.40;;;11.30;34.10;;;;;;6340437;28;20317;-64
2022/01/17 13:12:05;;;;;;;0.50;0.30;;;11.40;32.90;;;;;;6343843;28;20224;-64
2022/01/17 13:15:07;;;;;;;2.67;0.60;;;11.60;33.40;;;;;;6341143;28;20188;-64
2022/01/17 13:18:07;;;;;;;0.83;0.50;;;11.70;32.20;;;;;;6305460;28;20203;-64
2022/01/17 13:21:08;;;;;;;0.63;0.40;;;11.80;31.90;;;;;;6279645;28;20225;-65
2022/01/17 13:24:21;;;;;;;0.70;0.40;;;11.80;31.50;;;;;;6297846;28;20208;-64
2022/01/17 13:27:22;;;;;;;0.90;0.37;;;12.00;31.90;;;;;;6291568;28;20186;-64
2022/01/17 13:30:23;;;;;;;0.40;0.40;;;11.80;32.20;;;;;;6289715;28;20208;-64
2022/01/17 13:33:23;;;;;;;0.33;0.33;;;11.90;31.70;;;;;;6295079;28;20236;-64
2022/01/17 13:36:29;;;;;;;1.90;0.50;;;12.00;31.10;;;;;;6291728;28;20194;-65
2022/01/17 13:39:31;;;;;;;1.63;0.50;;;12.10;31.20;;;;;;6289822;28;20194;-63
2022/01/17 13:42:32;;;;;;;2.77;0.57;;;12.30;31.50;;;;;;6297633;28;20280;-62
2022/01/17 13:45:42;;;;;;;0.77;0.60;;;12.70;31.00;;;;;;6322682;28;20223;-63
2022/01/17 13:48:45;;;;;;;0.20;0.20;;;12.90;31.10;;;;;;6282887;28;20259;-63
2022/01/17 13:51:46;;;;;;;3.10;0.40;;;13.90;29.20;;;;;;6292790;28;20548;-64
2022/01/17 13:54:52;;;;;;;0.87;0.53;;;14.40;28.00;;;;;;6276503;28;20197;-63
2022/01/17 13:58:02;;;;;;;0.47;0.40;;;14.70;27.90;;;;;;6290125;28;20693;-63
2022/01/17 14:01:12;;;;;;;0.30;0.30;;;14.30;28.60;;;;;;6281708;28;20186;-64
2022/01/17 14:04:22;;;;;;;0.83;0.40;;;13.50;29.40;;;;;;6276316;28;20224;-63
2022/01/17 14:07:24;;;;;;;1.07;0.50;;;12.90;31.90;;;;;;6315226;28;20201;-61
2022/01/17 14:10:33;;;;;;;0.97;0.40;;;12.30;32.20;;;;;;6318282;28;20200;-60
2022/01/17 14:13:37;;;;;;;0.50;0.37;;;12.00;32.10;;;;;;6309171;28;20229;-64
2022/01/17 14:16:43;;;;;;;0.40;0.40;;;11.60;32.90;;;;;;6288207;28;21153;-63
2022/01/17 14:19:44;;;;;;;1.17;0.50;;;11.40;33.30;;;;;;6285385;28;20198;-60
2022/01/17 14:22:49;;;;;;;1.10;0.73;;;11.10;34.40;;;;;;6295739;28;20254;-61
2022/01/17 14:25:50;;;;;;;0.50;0.50;;;11.00;34.20;;;;;;6302637;28;20192;-61
2022/01/17 14:28:51;;;;;;;1.70;0.40;;;11.00;33.90;;;;;;6331880;28;20251;-63
2022/01/17 14:31:57;;;;;;;1.70;0.43;;;11.00;34.60;;;;;;6308294;28;20283;-62
2022/01/17 14:34:59;;;;;;;0.30;0.30;;;10.80;34.80;;;;;;6311735;28;20194;-62
2022/01/17 14:38:00;;;;;;;0.37;0.33;;;10.70;35.50;;;;;;6285884;28;20190;-63
2022/01/17 14:41:01;;;;;;;1.30;0.40;;;10.50;36.00;;;;;;6274071;28;20195;-61
2022/01/17 14:44:12;;;;;;;0.93;0.43;;;10.50;35.90;;;;;;6300872;28;20199;-62
2022/01/17 14:47:16;;;;;;;0.90;0.70;;;10.40;36.10;;;;;;6318152;28;20272;-61
2022/01/17 14:50:18;;;;;;;0.50;0.40;;;10.30;36.60;;;;;;6286441;28;20319;-62
2022/01/17 14:53:19;;;;;;;1.60;0.40;;;10.30;36.70;;;;;;6315201;28;20216;-62
2022/01/17 14:59:57;;;;;;;1.97;0.47;;;10.20;37.30;;;;;;6316605;28;20189;-61
2022/01/17 15:03:11;;;;;;;1.60;0.70;;;10.20;37.20;;;;;;6285366;28;20254;-62
2022/01/17 15:06:12;;;;;;;1.47;0.60;;;10.40;37.20;;;;;;6292199;28;20189;-63
2022/01/17 15:09:13;;;;;;;2.10;0.43;;;10.60;37.20;;;;;;6328113;27;20195;-63
2022/01/17 15:12:18;;;;;;;1.80;0.63;;;10.80;36.50;;;;;;6277914;28;20262;-63
2022/01/17 15:15:19;;;;;;;0.50;0.50;;;10.60;36.60;;;;;;6295545;28;20189;-62
2022/01/17 15:18:20;;;;;;;1.27;0.70;;;10.50;36.90;;;;;;6311933;28;20199;-63
2022/01/17 15:21:21;;;;;;;1.10;0.53;;;10.30;37.50;;;;;;6296595;28;20234;-63
2022/01/17 15:24:22;;;;;;;2.17;0.70;;;10.20;37.80;;;;;;6252480;28;20280;-63
2022/01/17 15:27:23;;;;;;;1.80;0.60;;;10.10;37.90;;;;;;6255821;28;20199;-63
2022/01/17 15:30:25;;;;;;;0.50;0.50;;;10.00;38.20;;;;;;6253778;28;20227;-61
2022/01/17 15:33:27;;;;;;;0.60;0.50;;;9.90;38.50;;;;;;6247416;28;20213;-61
2022/01/17 15:36:27;;;;;;;0.83;0.70;;;9.80;38.70;;;;;;6278901;28;20190;-61
2022/01/17 15:39:28;;;;;;;0.97;0.60;;;9.70;38.90;;;;;;6265599;28;20248;-63
2022/01/17 15:42:29;;;;;;;1.37;0.30;;;9.80;38.60;;;;;;6282622;28;20192;-64
2022/01/17 15:45:30;;;;;;;2.30;0.60;;;9.70;39.10;;;;;;6264423;28;20193;-63
2022/01/17 15:48:31;;;;;;;3.00;0.53;;;9.60;39.60;;;;;;6240546;28;20204;-64